Time;durP1;ratioP1;P1;durP2;ratioP2;P2;SDS_P1;SDS_P2;PMS_P1;PMS_P2;Temp;Humidity;BMP_temperature;BMP_pressure;BME280_temperature;BME280_humidity;BME280_pressure;Samples;Min_cycle;Max_cycle;Signal;HPM_P1;HPM_P2
2023/03/28 00:00:48;;;;;;;4.65;0.93;;;3.70;99.90;;;;;;4964599;28;20031;-73
2023/03/28 00:03:17;;;;;;;0.60;0.50;;;3.70;99.90;;;;;;4969525;28;20038;-73
2023/03/28 00:05:47;;;;;;;1.15;0.68;;;3.60;99.90;;;;;;4964174;28;20032;-73
2023/03/28 00:08:17;;;;;;;0.75;0.52;;;3.60;99.90;;;;;;4971016;28;20035;-73
2023/03/28 00:10:44;;;;;;;0.60;0.50;;;3.70;99.90;;;;;;4963822;28;20029;-73
2023/03/28 00:13:12;;;;;;;0.57;0.45;;;3.60;99.90;;;;;;4969845;28;20482;-73
2023/03/28 00:15:40;;;;;;;2.63;0.90;;;3.50;99.90;;;;;;4963579;28;20035;-73
2023/03/28 00:18:07;;;;;;;2.17;1.05;;;3.50;99.90;;;;;;4971674;28;20030;-72
2023/03/28 00:20:38;;;;;;;3.25;1.23;;;3.40;99.90;;;;;;4963713;28;20027;-72
2023/03/28 00:23:04;;;;;;;2.03;0.80;;;3.40;99.90;;;;;;4970743;28;20395;-72
2023/03/28 00:25:35;;;;;;;0.65;0.60;;;3.50;99.90;;;;;;4962293;28;20027;-72
2023/03/28 00:28:02;;;;;;;1.30;0.80;;;3.50;99.90;;;;;;4954966;28;20026;-72
2023/03/28 00:30:28;;;;;;;11.05;1.55;;;3.50;99.90;;;;;;4961737;28;20051;-73
2023/03/28 00:32:53;;;;;;;1.55;1.13;;;3.50;99.90;;;;;;4971779;28;20062;-72
2023/03/28 00:35:19;;;;;;;0.70;0.50;;;3.50;99.90;;;;;;4958737;28;20050;-73
2023/03/28 00:37:49;;;;;;;3.47;1.50;;;3.40;99.90;;;;;;4973334;28;20550;-73
2023/03/28 00:40:15;;;;;;;3.88;0.60;;;3.40;99.90;;;;;;4962446;28;20024;-73
2023/03/28 00:42:42;;;;;;;1.70;1.05;;;3.40;99.90;;;;;;4972646;28;20475;-73
2023/03/28 00:45:10;;;;;;;2.23;1.03;;;3.40;99.90;;;;;;4962955;28;20057;-73
2023/03/28 00:47:53;;;;;;;4.72;1.00;;;3.50;99.90;;;;;;4972307;28;20283;-73
2023/03/28 00:50:33;;;;;;;2.50;1.33;;;3.30;99.90;;;;;;4957692;28;20125;-73
2023/03/28 00:53:06;;;;;;;4.38;1.00;;;3.10;99.90;;;;;;4934395;29;20043;-72
2023/03/28 00:56:00;;;;;;;4.30;1.30;;;3.10;99.90;;;;;;4959597;28;20046;-72
2023/03/28 00:58:32;;;;;;;10.55;1.20;;;3.00;99.90;;;;;;4961622;28;20122;-72
2023/03/28 01:00:58;;;;;;;2.97;0.98;;;3.00;99.90;;;;;;4964337;28;20046;-73
2023/03/28 01:03:33;;;;;;;3.72;1.25;;;3.10;99.90;;;;;;4968255;28;20106;-73
2023/03/28 01:06:05;;;;;;;5.40;2.08;;;3.10;99.90;;;;;;4939997;28;20504;-73
2023/03/28 01:08:36;;;;;;;1.20;1.08;;;3.10;99.90;;;;;;4953193;28;20509;-73
2023/03/28 01:11:03;;;;;;;4.80;1.60;;;3.00;99.90;;;;;;4964090;28;20031;-73
2023/03/28 01:13:33;;;;;;;1.33;1.05;;;2.90;99.90;;;;;;4959484;28;20054;-73
2023/03/28 01:16:01;;;;;;;1.73;0.90;;;2.90;99.90;;;;;;4942252;28;20384;-73
2023/03/28 01:18:29;;;;;;;1.42;1.00;;;2.80;99.90;;;;;;4941681;28;20039;-73
2023/03/28 01:21:32;;;;;;;2.67;1.33;;;2.80;99.90;;;;;;4957584;28;20110;-73
2023/03/28 01:24:25;;;;;;;7.13;1.65;;;2.80;99.90;;;;;;4961662;28;20073;-73
2023/03/28 01:27:18;;;;;;;4.10;1.83;;;2.80;99.90;;;;;;4960908;28;20030;-73
2023/03/28 01:30:23;;;;;;;5.03;1.65;;;3.00;99.90;;;;;;4966662;28;20042;-72
2023/03/28 01:33:33;;;;;;;15.50;1.92;;;3.10;99.90;;;;;;4962539;28;20449;-72
2023/03/28 01:36:34;;;;;;;3.03;1.15;;;3.20;99.90;;;;;;4969210;28;20042;-72
2023/03/28 01:39:31;;;;;;;1.75;0.90;;;3.20;99.90;;;;;;4958752;28;20030;-72
2023/03/28 01:42:34;;;;;;;2.17;1.60;;;3.10;99.90;;;;;;4964950;28;20043;-72
2023/03/28 01:45:17;;;;;;;1.40;0.73;;;3.10;99.90;;;;;;4934452;29;20055;-72
2023/03/28 01:48:28;;;;;;;2.08;0.90;;;3.10;99.90;;;;;;4961717;28;20035;-72
2023/03/28 01:51:06;;;;;;;2.80;0.60;;;3.10;99.90;;;;;;4967406;28;20034;-72
2023/03/28 01:53:55;;;;;;;2.30;0.85;;;3.10;99.90;;;;;;4964086;28;20031;-72
2023/03/28 01:56:38;;;;;;;3.05;1.05;;;3.00;99.90;;;;;;4967313;28;20697;-72
2023/03/28 01:59:25;;;;;;;2.83;1.05;;;3.00;99.90;;;;;;4960360;28;20031;-72
2023/03/28 02:02:03;;;;;;;1.00;0.57;;;3.00;99.90;;;;;;4965239;28;20558;-72
2023/03/28 02:04:32;;;;;;;7.85;1.40;;;2.90;99.90;;;;;;4967969;28;20130;-73
2023/03/28 02:06:58;;;;;;;4.90;1.45;;;3.00;99.90;;;;;;4961204;28;20031;-73
2023/03/28 02:09:25;;;;;;;2.45;1.42;;;3.00;99.90;;;;;;4968666;28;20061;-72
2023/03/28 02:12:03;;;;;;;2.17;1.10;;;3.00;99.90;;;;;;4963854;28;20023;-72
2023/03/28 02:14:38;;;;;;;4.18;1.63;;;2.90;99.90;;;;;;4965852;28;20030;-73
2023/03/28 02:17:14;;;;;;;2.30;1.15;;;2.90;99.90;;;;;;4957147;28;20070;-73
2023/03/28 02:19:49;;;;;;;4.50;1.23;;;2.80;99.90;;;;;;4969743;28;20034;-73
2023/03/28 02:22:20;;;;;;;6.18;2.05;;;2.70;99.90;;;;;;4960876;28;20049;-73
2023/03/28 02:24:50;;;;;;;4.07;1.05;;;2.60;99.90;;;;;;4970153;28;20125;-73
2023/03/28 02:27:21;;;;;;;3.13;1.75;;;2.50;99.90;;;;;;4958862;28;20511;-73
2023/03/28 02:29:53;;;;;;;5.15;1.30;;;2.30;99.90;;;;;;4971841;28;20487;-72
2023/03/28 02:32:23;;;;;;;5.65;1.55;;;2.30;99.90;;;;;;4960079;28;20027;-73
2023/03/28 02:34:52;;;;;;;1.20;0.98;;;2.30;99.90;;;;;;4970470;28;20520;-73
2023/03/28 02:37:47;;;;;;;4.20;1.98;;;2.20;99.90;;;;;;4960061;28;20082;-73
2023/03/28 02:40:31;;;;;;;9.32;2.45;;;2.20;99.90;;;;;;4934149;29;20079;-73
2023/03/28 02:43:36;;;;;;;1.42;0.95;;;2.10;99.90;;;;;;4956236;28;20045;-72
2023/03/28 02:46:13;;;;;;;2.35;1.00;;;2.20;99.90;;;;;;4959290;28;20111;-73
2023/03/28 02:49:15;;;;;;;3.17;0.93;;;2.30;99.90;;;;;;4967742;28;20050;-74
2023/03/28 02:52:33;;;;;;;1.30;0.98;;;2.30;99.90;;;;;;4957915;28;20043;-73
2023/03/28 02:55:37;;;;;;;2.95;1.23;;;2.40;99.90;;;;;;4947772;29;20043;-73
2023/03/28 02:58:22;;;;;;;8.20;1.38;;;2.50;99.90;;;;;;4958012;28;20118;-73
2023/03/28 03:00:49;;;;;;;1.70;1.02;;;2.50;99.90;;;;;;4957611;28;20058;-73
2023/03/28 03:03:16;;;;;;;1.52;1.02;;;2.60;99.90;;;;;;4965792;28;20031;-73
2023/03/28 03:05:42;;;;;;;5.35;1.88;;;2.60;99.90;;;;;;4972324;28;20036;-73
2023/03/28 03:08:09;;;;;;;6.15;1.05;;;2.60;99.90;;;;;;4966149;28;20466;-73
2023/03/28 03:10:35;;;;;;;4.72;1.15;;;2.50;99.90;;;;;;4970847;28;20173;-74
2023/03/28 03:13:01;;;;;;;3.25;1.75;;;2.40;99.90;;;;;;4965719;28;20035;-73
2023/03/28 03:15:29;;;;;;;3.80;1.70;;;2.30;99.90;;;;;;4962146;28;20673;-73
2023/03/28 03:17:57;;;;;;;7.25;2.50;;;2.20;99.90;;;;;;4967337;28;20398;-73
2023/03/28 03:20:25;;;;;;;4.55;1.98;;;2.10;99.90;;;;;;4971848;28;20032;-73
2023/03/28 03:22:54;;;;;;;1.63;1.08;;;2.00;99.90;;;;;;4956169;28;20027;-73
2023/03/28 03:25:20;;;;;;;1.85;0.80;;;1.90;99.90;;;;;;4954030;29;20570;-73
2023/03/28 03:27:46;;;;;;;1.70;1.10;;;1.80;99.90;;;;;;4966585;28;20030;-73
2023/03/28 03:30:12;;;;;;;3.67;1.88;;;1.70;99.90;;;;;;4972154;28;20094;-73
2023/03/28 03:32:38;;;;;;;4.78;1.15;;;1.70;99.90;;;;;;4985340;23;20590;-70
2023/03/28 03:35:05;;;;;;;2.85;1.27;;;1.60;99.90;;;;;;4956860;28;20106;-69
2023/03/28 03:37:31;;;;;;;1.92;1.20;;;1.40;99.90;;;;;;4967350;28;20043;-69
2023/03/28 03:39:56;;;;;;;5.28;1.95;;;1.20;99.90;;;;;;4966601;28;20031;-70
2023/03/28 03:42:22;;;;;;;2.13;1.23;;;1.10;99.90;;;;;;4966627;28;20047;-71
2023/03/28 03:44:48;;;;;;;1.20;0.93;;;1.00;99.90;;;;;;4966062;28;20062;-71
2023/03/28 03:47:16;;;;;;;2.95;1.33;;;1.00;99.90;;;;;;4977100;28;20043;-71
2023/03/28 03:49:42;;;;;;;1.27;0.85;;;0.90;99.90;;;;;;4964550;28;20027;-71
2023/03/28 03:52:08;;;;;;;0.60;0.60;;;0.80;99.90;;;;;;4963061;28;20030;-71
2023/03/28 03:54:34;;;;;;;1.58;0.90;;;0.70;99.90;;;;;;4962225;28;20034;-71
2023/03/28 03:57:01;;;;;;;3.28;1.27;;;0.80;99.90;;;;;;4969330;28;20032;-72
2023/03/28 03:59:28;;;;;;;0.75;0.68;;;0.70;99.90;;;;;;4961555;28;20027;-71
2023/03/28 04:01:54;;;;;;;4.72;1.73;;;0.70;99.90;;;;;;4953220;28;20108;-71
2023/03/28 04:04:21;;;;;;;0.82;0.55;;;0.70;99.90;;;;;;4956632;28;20503;-72
2023/03/28 04:06:47;;;;;;;0.43;0.32;;;0.80;99.90;;;;;;4955440;28;20043;-71
2023/03/28 04:09:12;;;;;;;1.92;1.15;;;0.80;99.90;;;;;;4961555;28;20035;-71
2023/03/28 04:11:38;;;;;;;2.45;1.60;;;0.80;99.90;;;;;;4961129;28;20373;-71
2023/03/28 04:14:04;;;;;;;7.28;1.17;;;0.80;99.90;;;;;;4962277;28;20383;-72
2023/03/28 04:16:33;;;;;;;8.75;0.98;;;0.80;99.90;;;;;;4952309;28;20087;-71
2023/03/28 04:18:59;;;;;;;2.33;0.35;;;0.60;99.90;;;;;;4954537;28;20034;-71
2023/03/28 04:21:29;;;;;;;1.60;0.82;;;0.60;99.90;;;;;;4951403;29;20376;-71
2023/03/28 04:23:55;;;;;;;1.98;0.88;;;0.60;99.90;;;;;;4962189;28;20118;-70
2023/03/28 04:26:27;;;;;;;1.73;1.38;;;0.60;99.90;;;;;;4968831;28;20427;-70
2023/03/28 04:28:55;;;;;;;2.25;1.25;;;0.50;99.90;;;;;;4969617;28;20109;-70
2023/03/28 04:31:28;;;;;;;1.85;0.90;;;0.40;99.90;;;;;;4956963;28;20387;-70
2023/03/28 04:33:54;;;;;;;4.53;0.90;;;0.70;99.90;;;;;;4960681;28;20035;-70
2023/03/28 04:36:21;;;;;;;33.22;12.93;;;1.00;99.90;;;;;;4964906;28;20125;-70
2023/03/28 04:38:48;;;;;;;6.00;2.67;;;1.00;99.90;;;;;;4969015;28;20031;-69
2023/03/28 04:41:15;;;;;;;28.50;11.35;;;1.20;99.90;;;;;;4968380;28;20027;-70
2023/03/28 04:43:45;;;;;;;9.65;3.65;;;1.10;99.90;;;;;;4955497;28;20041;-71
2023/03/28 04:46:10;;;;;;;3.45;1.70;;;1.00;99.90;;;;;;4982663;28;20100;-71
2023/03/28 04:48:36;;;;;;;3.58;2.13;;;0.80;99.90;;;;;;4963229;28;20376;-71
2023/03/28 04:51:02;;;;;;;5.80;1.52;;;0.80;99.90;;;;;;4966542;28;20113;-72
2023/03/28 04:53:28;;;;;;;2.53;1.70;;;0.70;99.90;;;;;;4963744;28;20061;-71
2023/03/28 04:55:54;;;;;;;8.75;3.72;;;0.60;99.90;;;;;;4965679;28;20023;-71
2023/03/28 04:58:22;;;;;;;2.40;1.95;;;0.60;99.90;;;;;;4957860;28;20454;-71
2023/03/28 05:00:48;;;;;;;1.88;0.88;;;0.50;99.90;;;;;;4957981;28;20035;-71
2023/03/28 05:03:21;;;;;;;1.75;0.98;;;0.40;99.90;;;;;;4959620;28;20479;-72
2023/03/28 05:05:50;;;;;;;3.58;1.20;;;0.30;99.90;;;;;;4963968;28;20063;-71
2023/03/28 05:08:18;;;;;;;1.77;1.00;;;0.10;99.90;;;;;;4964431;28;20033;-70
2023/03/28 05:10:45;;;;;;;1.10;1.00;;;0.10;99.90;;;;;;4942385;29;20042;-69
2023/03/28 05:13:12;;;;;;;14.55;2.35;;;0.00;99.90;;;;;;4957531;28;20133;-70
2023/03/28 05:15:38;;;;;;;2.55;1.15;;;0.00;99.90;;;;;;4952699;28;20039;-69
2023/03/28 05:18:04;;;;;;;5.25;1.33;;;0.10;99.90;;;;;;4958712;28;20035;-70
2023/03/28 05:20:31;;;;;;;10.02;1.95;;;0.10;99.90;;;;;;4965031;28;20121;-70
2023/03/28 05:22:57;;;;;;;2.63;1.35;;;0.10;99.90;;;;;;4947892;28;20109;-70
2023/03/28 05:25:24;;;;;;;2.65;1.40;;;0.10;99.90;;;;;;4963476;28;20026;-69
2023/03/28 05:27:50;;;;;;;3.40;1.70;;;0.10;99.90;;;;;;4951093;28;20031;-70
2023/03/28 05:30:17;;;;;;;1.77;1.17;;;0.20;99.90;;;;;;4955785;28;20395;-71
2023/03/28 05:32:43;;;;;;;1.25;0.90;;;0.20;99.90;;;;;;4955288;28;20042;-71
2023/03/28 05:35:11;;;;;;;3.58;1.23;;;0.20;99.90;;;;;;4963523;28;20027;-71
2023/03/28 05:37:37;;;;;;;2.88;1.17;;;0.20;99.90;;;;;;4964195;28;20069;-70
2023/03/28 05:40:07;;;;;;;1.95;1.35;;;0.30;99.90;;;;;;4963563;28;20070;-70
2023/03/28 05:42:34;;;;;;;1.77;1.23;;;0.20;99.90;;;;;;4964488;28;20122;-72
2023/03/28 05:45:02;;;;;;;1.40;0.98;;;0.30;99.90;;;;;;4964029;28;20081;-71
2023/03/28 05:47:27;;;;;;;0.93;0.85;;;0.30;99.90;;;;;;4959536;28;20039;-71
2023/03/28 05:49:53;;;;;;;0.93;0.85;;;0.40;99.90;;;;;;4962837;28;20495;-72
2023/03/28 05:52:19;;;;;;;1.88;1.17;;;0.40;99.90;;;;;;4958705;28;20040;-72
2023/03/28 05:54:45;;;;;;;2.95;1.27;;;0.50;99.90;;;;;;4962253;28;20031;-71
2023/03/28 05:57:10;;;;;;;7.63;2.70;;;0.60;99.90;;;;;;4962384;28;20393;-71
2023/03/28 05:59:39;;;;;;;3.17;1.60;;;0.60;99.90;;;;;;4960629;28;20038;-71
2023/03/28 06:02:10;;;;;;;1.73;1.23;;;0.70;99.90;;;;;;4951992;28;20031;-71
2023/03/28 06:04:36;;;;;;;1.52;0.93;;;0.60;99.90;;;;;;4961954;28;20050;-71
2023/03/28 06:07:02;;;;;;;1.45;0.98;;;0.60;99.90;;;;;;4966709;28;20039;-71
2023/03/28 06:09:30;;;;;;;6.75;2.13;;;0.60;99.90;;;;;;4960971;28;20505;-71
2023/03/28 06:12:06;;;;;;;2.72;1.23;;;0.60;99.90;;;;;;4956426;28;20038;-71
2023/03/28 06:14:31;;;;;;;3.72;1.30;;;0.60;99.90;;;;;;4959272;28;20029;-71
2023/03/28 06:16:58;;;;;;;2.03;1.73;;;0.70;99.90;;;;;;4951035;28;20031;-71
2023/03/28 06:19:25;;;;;;;2.17;1.20;;;0.70;99.90;;;;;;4960633;28;20027;-71
2023/03/28 06:21:51;;;;;;;2.50;2.22;;;0.80;99.90;;;;;;4935054;29;20054;-71
2023/03/28 06:24:17;;;;;;;2.88;1.25;;;0.80;99.90;;;;;;4960236;28;20502;-71
2023/03/28 06:26:43;;;;;;;2.97;1.13;;;0.90;99.90;;;;;;4968018;28;20118;-71
2023/03/28 06:29:10;;;;;;;9.52;1.50;;;0.90;99.90;;;;;;4960354;28;20139;-70
2023/03/28 06:31:36;;;;;;;12.02;1.50;;;1.00;99.90;;;;;;4953213;28;20502;-70
2023/03/28 06:34:02;;;;;;;2.13;1.35;;;1.00;99.90;;;;;;4952517;28;20106;-70
2023/03/28 06:36:28;;;;;;;3.45;1.98;;;1.00;99.90;;;;;;4968154;28;20439;-70
2023/03/28 06:38:54;;;;;;;1.83;1.38;;;1.10;99.90;;;;;;4952477;28;20023;-70
2023/03/28 06:41:20;;;;;;;5.68;1.10;;;1.20;99.90;;;;;;4941876;28;20559;-70
2023/03/28 06:43:46;;;;;;;2.33;1.63;;;1.20;99.90;;;;;;4958880;28;20035;-70
2023/03/28 06:46:12;;;;;;;19.30;2.10;;;1.30;99.90;;;;;;4966315;28;20122;-67
2023/03/28 06:48:38;;;;;;;1.73;1.48;;;1.40;99.90;;;;;;4961649;28;20030;-69
2023/03/28 06:51:05;;;;;;;15.45;1.50;;;1.40;99.90;;;;;;4965251;28;20031;-68
2023/03/28 06:53:31;;;;;;;1.85;1.50;;;1.50;99.90;;;;;;4953827;28;20030;-68
2023/03/28 06:55:58;;;;;;;5.18;2.33;;;1.60;99.90;;;;;;4964323;28;20565;-68
2023/03/28 06:58:24;;;;;;;3.83;1.88;;;1.60;99.90;;;;;;4964079;28;20050;-68
2023/03/28 07:00:54;;;;;;;4.35;2.40;;;1.70;99.90;;;;;;4946256;28;20027;-68
2023/03/28 07:03:19;;;;;;;4.72;1.63;;;1.80;99.90;;;;;;4948430;28;20040;-69
2023/03/28 07:05:45;;;;;;;13.68;4.30;;;1.80;99.90;;;;;;4962974;28;20038;-68
2023/03/28 07:08:12;;;;;;;8.13;3.92;;;1.90;99.90;;;;;;4949634;28;20024;-68
2023/03/28 07:10:40;;;;;;;5.40;2.78;;;2.00;99.90;;;;;;4955034;28;20071;-68
2023/03/28 07:13:06;;;;;;;3.22;1.40;;;2.10;99.90;;;;;;4943932;28;20026;-68
2023/03/28 07:15:32;;;;;;;2.38;1.63;;;2.10;99.90;;;;;;4962096;28;20114;-68
2023/03/28 07:17:59;;;;;;;6.63;2.72;;;2.20;99.90;;;;;;4962022;28;20058;-68
2023/03/28 07:20:25;;;;;;;1.33;1.00;;;2.30;99.90;;;;;;4963264;28;20030;-69
2023/03/28 07:22:51;;;;;;;5.18;2.83;;;2.40;99.90;;;;;;4962703;28;20490;-69
2023/03/28 07:25:17;;;;;;;3.17;1.48;;;2.60;99.90;;;;;;4962985;28;20049;-69
2023/03/28 07:27:43;;;;;;;4.15;2.42;;;2.60;99.90;;;;;;4963887;28;20130;-69
2023/03/28 07:30:10;;;;;;;8.55;2.08;;;2.70;99.90;;;;;;4962849;28;20058;-69
2023/03/28 07:32:36;;;;;;;11.45;2.22;;;2.80;99.90;;;;;;4953055;28;20484;-69
2023/03/28 07:35:06;;;;;;;2.80;1.42;;;2.80;99.90;;;;;;4966451;28;20030;-69
2023/03/28 07:37:33;;;;;;;2.80;1.65;;;2.90;99.90;;;;;;4966293;28;20039;-69
2023/03/28 07:39:59;;;;;;;13.75;2.17;;;3.00;99.90;;;;;;4966890;28;20030;-69
2023/03/28 07:42:26;;;;;;;7.22;2.47;;;3.00;99.90;;;;;;4966239;28;20035;-69
2023/03/28 07:44:52;;;;;;;1.38;1.27;;;3.10;99.90;;;;;;4961739;28;20046;-69
2023/03/28 07:47:18;;;;;;;3.20;1.50;;;3.10;99.90;;;;;;4950092;29;20031;-69
2023/03/28 07:49:44;;;;;;;5.75;1.67;;;3.20;99.90;;;;;;4964673;28;20027;-69
2023/03/28 07:52:12;;;;;;;12.73;1.52;;;3.30;99.90;;;;;;4963149;28;20035;-70
2023/03/28 07:54:37;;;;;;;8.35;2.03;;;3.40;99.90;;;;;;4959668;28;20019;-70
2023/03/28 07:57:04;;;;;;;5.45;1.13;;;3.50;99.90;;;;;;4954600;28;20054;-70
2023/03/28 07:59:30;;;;;;;5.20;1.75;;;3.50;99.90;;;;;;4963402;28;20035;-70
2023/03/28 08:01:56;;;;;;;10.38;3.95;;;3.60;99.90;;;;;;4955762;28;20057;-69
2023/03/28 08:04:22;;;;;;;9.20;3.13;;;3.60;99.90;;;;;;4962581;28;20447;-69
2023/03/28 08:06:48;;;;;;;4.95;2.03;;;3.70;99.90;;;;;;4970303;28;20039;-68
2023/03/28 08:09:15;;;;;;;15.23;1.98;;;3.80;99.90;;;;;;4961412;28;20031;-69
2023/03/28 08:11:43;;;;;;;6.20;2.40;;;3.90;99.90;;;;;;4957743;28;20413;-69
2023/03/28 08:14:15;;;;;;;4.05;0.90;;;3.90;99.90;;;;;;4955644;28;20094;-69
2023/03/28 08:16:43;;;;;;;2.97;1.75;;;4.00;99.90;;;;;;4964064;28;20027;-69
2023/03/28 08:19:09;;;;;;;3.42;1.63;;;3.90;99.90;;;;;;4959967;28;20495;-69
2023/03/28 08:21:35;;;;;;;3.47;1.02;;;4.10;99.90;;;;;;4968782;28;20039;-70
2023/03/28 08:24:06;;;;;;;3.30;1.25;;;4.10;99.90;;;;;;4959100;28;20125;-69
2023/03/28 08:26:32;;;;;;;10.20;1.73;;;4.30;99.90;;;;;;4968854;28;20039;-69
2023/03/28 08:28:58;;;;;;;8.77;2.03;;;4.40;99.90;;;;;;4955611;28;20059;-69
2023/03/28 08:31:26;;;;;;;11.60;1.48;;;4.60;99.90;;;;;;4956379;28;20031;-69
2023/03/28 08:33:54;;;;;;;2.47;1.50;;;4.70;99.90;;;;;;4960537;28;20027;-69
2023/03/28 08:36:22;;;;;;;2.13;1.30;;;4.80;99.90;;;;;;4968452;28;20038;-69
2023/03/28 08:38:48;;;;;;;5.75;2.13;;;4.80;99.90;;;;;;4961857;28;20031;-69
2023/03/28 08:41:43;;;;;;;3.00;1.85;;;4.90;99.90;;;;;;4969024;28;20034;-69
2023/03/28 08:45:07;;;;;;;4.18;1.67;;;4.90;99.90;;;;;;4956534;28;20470;-69
2023/03/28 08:47:49;;;;;;;4.00;2.33;;;5.10;99.90;;;;;;4944548;28;20039;-69
2023/03/28 08:50:31;;;;;;;3.20;1.65;;;5.40;99.90;;;;;;4964223;28;20368;-69
2023/03/28 08:52:56;;;;;;;;;;;5.40;99.90;;;;;;4957124;28;20092;-70
2023/03/28 08:55:37;;;;;;;3.85;1.13;;;5.30;99.90;;;;;;4965649;28;19910;-70
2023/03/28 08:58:04;;;;;;;4.65;1.52;;;5.30;99.90;;;;;;4963585;28;20059;-70
2023/03/28 09:00:37;;;;;;;5.72;1.67;;;5.60;99.90;;;;;;4958251;28;20039;-69
2023/03/28 09:03:14;;;;;;;10.73;2.00;;;5.80;99.90;;;;;;4958158;28;20022;-69
2023/03/28 09:06:00;;;;;;;3.03;1.52;;;5.80;99.90;;;;;;4965172;28;20113;-70
2023/03/28 09:09:00;;;;;;;3.65;1.42;;;5.80;99.90;;;;;;4964243;28;20394;-69
2023/03/28 09:11:50;;;;;;;2.47;1.25;;;6.00;99.90;;;;;;4957533;28;20030;-69
2023/03/28 09:14:30;;;;;;;5.28;1.70;;;6.30;99.90;;;;;;4956925;28;20042;-70
2023/03/28 09:17:22;;;;;;;3.25;1.52;;;6.50;99.90;;;;;;4938344;29;20039;-70
2023/03/28 09:20:18;;;;;;;7.60;1.55;;;6.40;99.90;;;;;;4964711;28;20042;-69
2023/03/28 09:22:45;;;;;;;3.05;1.25;;;6.50;99.90;;;;;;4961326;28;20539;-70
2023/03/28 09:25:45;;;;;;;7.85;2.25;;;6.60;99.90;;;;;;4964420;28;20038;-69
2023/03/28 09:28:50;;;;;;;1.75;1.23;;;6.30;99.90;;;;;;4963060;28;20042;-69
2023/03/28 09:31:20;;;;;;;2.58;1.42;;;6.50;99.90;;;;;;4950047;28;20067;-69
2023/03/28 09:33:48;;;;;;;4.35;1.63;;;6.80;99.90;;;;;;4977145;23;20049;-68
2023/03/28 09:36:24;;;;;;;6.60;1.05;;;7.20;99.90;;;;;;4970930;28;20373;-68
2023/03/28 09:39:32;;;;;;;7.47;1.42;;;7.20;98.40;;;;;;4968364;28;20035;-69
2023/03/28 09:42:11;;;;;;;5.63;1.20;;;7.10;98.70;;;;;;4939251;29;20062;-69
2023/03/28 09:44:47;;;;;;;9.95;1.45;;;7.10;99.50;;;;;;4969171;28;20062;-70
2023/03/28 09:47:13;;;;;;;3.97;1.20;;;7.20;99.90;;;;;;4970551;28;20141;-70
2023/03/28 09:49:39;;;;;;;6.25;1.75;;;6.70;99.90;;;;;;4971992;28;20062;-70
2023/03/28 09:52:20;;;;;;;3.33;1.23;;;6.90;99.90;;;;;;4970358;28;20502;-69
2023/03/28 09:54:47;;;;;;;3.30;0.85;;;7.20;99.70;;;;;;4969990;28;20098;-69
2023/03/28 09:57:13;;;;;;;5.80;2.58;;;7.30;99.10;;;;;;4970348;28;20117;-69
2023/03/28 09:59:39;;;;;;;4.57;0.80;;;7.10;98.10;;;;;;4970478;28;20023;-69
2023/03/28 10:02:28;;;;;;;10.18;0.90;;;7.30;96.80;;;;;;4973029;28;20157;-69
2023/03/28 10:04:55;;;;;;;2.15;1.40;;;7.50;97.30;;;;;;4962877;28;20057;-70
2023/03/28 10:07:30;;;;;;;1.80;0.95;;;7.60;96.70;;;;;;4971244;28;20373;-69
2023/03/28 10:09:58;;;;;;;1.45;0.88;;;7.10;95.10;;;;;;4965006;28;20034;-69
2023/03/28 10:12:36;;;;;;;1.58;0.43;;;7.30;96.30;;;;;;4953635;28;20088;-69
2023/03/28 10:15:04;;;;;;;1.83;0.65;;;7.10;94.70;;;;;;4964233;28;20082;-71
2023/03/28 10:17:34;;;;;;;1.83;0.85;;;7.30;95.80;;;;;;4969601;28;20574;-69
2023/03/28 10:20:14;;;;;;;1.27;0.73;;;7.10;96.60;;;;;;4970188;28;20042;-69
2023/03/28 10:22:43;;;;;;;4.28;1.08;;;7.50;96.30;;;;;;4953496;28;20050;-68
2023/03/28 10:25:35;;;;;;;7.13;0.80;;;7.60;95.60;;;;;;4970201;28;20042;-69
2023/03/28 10:28:04;;;;;;;0.68;0.43;;;7.50;95.40;;;;;;4969876;28;20090;-69
2023/03/28 10:30:33;;;;;;;16.23;1.63;;;8.10;94.70;;;;;;4970251;28;20067;-69
2023/03/28 10:33:17;;;;;;;3.72;0.82;;;7.80;93.50;;;;;;4967734;28;20038;-69
2023/03/28 10:35:59;;;;;;;1.15;0.73;;;7.90;92.10;;;;;;4986427;28;20031;-69
2023/03/28 10:38:44;;;;;;;1.40;0.45;;;7.40;93.50;;;;;;4970976;28;20097;-68
2023/03/28 10:41:26;;;;;;;0.73;0.40;;;7.90;92.70;;;;;;4970529;28;20121;-69
2023/03/28 10:43:53;;;;;;;11.43;1.25;;;8.20;92.80;;;;;;4969419;28;20031;-69
2023/03/28 10:46:40;;;;;;;8.48;0.93;;;8.50;92.80;;;;;;4970078;28;20081;-69
2023/03/28 10:49:14;;;;;;;5.88;1.00;;;8.70;92.70;;;;;;4969466;28;20109;-69
2023/03/28 10:51:41;;;;;;;1.25;0.70;;;8.40;92.80;;;;;;4970230;28;20487;-69
2023/03/28 10:54:47;;;;;;;2.00;0.70;;;8.40;93.20;;;;;;4968876;28;20042;-69
2023/03/28 10:57:26;;;;;;;0.25;0.20;;;8.10;92.80;;;;;;4952968;28;20162;-70
2023/03/28 11:00:17;;;;;;;0.68;0.50;;;8.60;92.80;;;;;;4969673;28;20088;-68
2023/03/28 11:03:17;;;;;;;8.60;2.60;;;9.10;92.80;;;;;;4972037;28;20038;-69
2023/03/28 11:05:56;;;;;;;1.40;0.65;;;9.30;91.60;;;;;;4975028;28;20546;-69
2023/03/28 11:09:09;;;;;;;23.52;1.35;;;9.40;92.50;;;;;;4973319;28;20035;-69
2023/03/28 11:12:36;;;;;;;2.20;0.98;;;9.70;92.40;;;;;;4966533;28;20042;-69
2023/03/28 11:15:17;;;;;;;1.58;0.75;;;9.30;91.20;;;;;;4937879;28;20094;-69
2023/03/28 11:18:29;;;;;;;1.87;0.77;;;9.00;90.70;;;;;;4971799;28;20031;-70
2023/03/28 11:21:13;;;;;;;1.83;0.38;;;9.10;90.50;;;;;;4952733;28;20062;-69
2023/03/28 11:23:44;;;;;;;2.70;0.82;;;9.50;86.60;;;;;;4973978;28;20087;-70
2023/03/28 11:26:14;;;;;;;4.65;0.80;;;10.00;90.80;;;;;;4974563;28;20045;-70
2023/03/28 11:28:52;;;;;;;1.80;0.85;;;10.00;89.50;;;;;;4974268;28;20114;-70
2023/03/28 11:31:32;;;;;;;3.53;1.08;;;9.60;89.10;;;;;;4974721;28;20054;-70
2023/03/28 11:34:21;;;;;;;4.55;0.95;;;9.60;90.40;;;;;;4972237;28;20034;-70
2023/03/28 11:36:52;;;;;;;4.60;0.75;;;9.30;90.00;;;;;;4974396;28;20027;-69
2023/03/28 11:40:06;;;;;;;2.85;0.90;;;9.70;90.60;;;;;;4971069;28;20071;-70
2023/03/28 11:43:08;;;;;;;12.95;1.75;;;9.80;90.70;;;;;;4958653;28;20054;-69
2023/03/28 11:45:45;;;;;;;4.63;1.00;;;9.80;91.40;;;;;;4956411;28;20125;-70
2023/03/28 11:48:36;;;;;;;3.20;0.73;;;10.40;90.40;;;;;;4970440;28;20158;-69
2023/03/28 11:51:31;;;;;;;3.42;1.20;;;10.80;86.90;;;;;;4967154;28;20081;-73
2023/03/28 11:54:15;;;;;;;5.82;1.10;;;10.60;86.10;;;;;;4973437;28;20042;-69
2023/03/28 11:57:05;;;;;;;3.95;0.35;;;10.80;84.40;;;;;;4968486;28;20038;-71
2023/03/28 12:00:27;;;;;;;1.75;0.80;;;10.40;84.60;;;;;;4987433;28;20034;-69
2023/03/28 12:03:23;;;;;;;5.00;0.80;;;10.90;81.40;;;;;;4938612;28;20047;-68
2023/03/28 12:06:21;;;;;;;3.22;0.60;;;9.60;85.30;;;;;;4964026;28;20387;-69
2023/03/28 12:08:56;;;;;;;1.95;0.50;;;10.20;88.10;;;;;;4968646;28;20034;-80
2023/03/28 12:12:05;;;;;;;1.63;0.55;;;10.00;86.00;;;;;;4960954;28;20039;-70
2023/03/28 12:14:56;;;;;;;2.08;0.55;;;10.30;89.80;;;;;;4971761;28;20033;-69
2023/03/28 12:17:43;;;;;;;1.23;0.50;;;10.50;87.90;;;;;;4972360;28;20137;-69
2023/03/28 12:20:36;;;;;;;5.88;1.15;;;10.60;86.90;;;;;;4967055;28;20049;-69
2023/03/28 12:23:39;;;;;;;3.13;0.60;;;10.90;85.30;;;;;;4967723;28;20458;-69
2023/03/28 12:26:21;;;;;;;13.57;1.55;;;11.60;78.10;;;;;;4924466;28;20053;-69
2023/03/28 12:28:59;;;;;;;9.93;2.50;;;11.00;80.40;;;;;;4964894;28;20030;-69
2023/03/28 12:31:37;;;;;;;2.40;0.47;;;12.10;82.20;;;;;;4965030;28;20074;-67
2023/03/28 12:34:40;;;;;;;3.05;1.40;;;11.60;77.90;;;;;;4965108;28;20027;-68
2023/03/28 12:37:40;;;;;;;5.97;1.52;;;11.60;77.10;;;;;;4962453;28;20081;-69
2023/03/28 12:40:12;;;;;;;1.30;0.60;;;11.60;79.50;;;;;;4966158;28;20023;-69
2023/03/28 12:42:43;;;;;;;8.27;1.45;;;12.00;79.50;;;;;;4971064;28;20062;-68
2023/03/28 12:45:19;;;;;;;1.58;0.55;;;12.70;78.30;;;;;;4971852;28;20037;-69
2023/03/28 12:47:51;;;;;;;3.72;1.15;;;12.60;77.30;;;;;;4970654;28;20038;-68
2023/03/28 12:50:26;;;;;;;12.48;1.52;;;12.40;77.40;;;;;;4972017;28;20030;-69
2023/03/28 12:52:53;;;;;;;9.20;1.20;;;12.30;81.00;;;;;;4955575;28;20027;-70
2023/03/28 12:55:25;;;;;;;4.10;1.52;;;11.90;80.10;;;;;;4971675;28;20034;-70
2023/03/28 12:57:54;;;;;;;3.80;1.95;;;12.70;79.30;;;;;;4972704;28;20039;-70
2023/03/28 13:00:50;;;;;;;1.42;0.70;;;12.00;76.80;;;;;;4971777;28;20533;-69
2023/03/28 13:03:41;;;;;;;4.95;1.17;;;11.70;75.80;;;;;;4971111;28;20034;-69
2023/03/28 13:06:35;;;;;;;1.30;0.45;;;13.90;75.50;;;;;;4965989;28;20058;-69
2023/03/28 13:09:13;;;;;;;1.05;0.40;;;13.20;78.20;;;;;;4971434;28;20022;-69
2023/03/28 13:12:19;;;;;;;3.53;0.80;;;14.20;71.40;;;;;;4971417;28;20034;-69
2023/03/28 13:15:00;;;;;;;3.33;1.10;;;14.30;71.00;;;;;;4971989;28;20577;-68
2023/03/28 13:17:30;;;;;;;3.38;1.42;;;12.90;75.20;;;;;;4970371;28;20034;-68
2023/03/28 13:20:14;;;;;;;3.17;0.70;;;13.70;73.50;;;;;;4971108;28;20069;-69
2023/03/28 13:22:59;;;;;;;2.17;0.55;;;13.00;73.60;;;;;;4972233;28;20035;-69
2023/03/28 13:25:39;;;;;;;4.45;0.80;;;14.90;71.80;;;;;;4971926;28;20030;-69
2023/03/28 13:28:10;;;;;;;0.82;0.52;;;13.20;71.40;;;;;;4971166;28;20177;-68
2023/03/28 13:30:42;;;;;;;3.42;1.10;;;14.90;70.40;;;;;;4972335;28;20035;-68
2023/03/28 13:33:28;;;;;;;5.60;0.88;;;13.20;71.60;;;;;;4970274;28;20073;-69
2023/03/28 13:35:56;;;;;;;2.10;0.38;;;13.10;70.50;;;;;;4963908;28;20572;-68